sensor_id;sensor_type;location;lat;lon;timestamp;P1;durP1;ratioP1;P2;durP2;ratioP2
57889;SDS011;43707;50.184;18.966;2023-02-07T00:33:59;286.50;;;95.30;;
57889;SDS011;43707;50.184;18.966;2023-02-07T00:58:44;434.30;;;128.80;;
57889;SDS011;43707;50.184;18.966;2023-02-07T01:04:09;359.50;;;108.50;;
57889;SDS011;43707;50.184;18.966;2023-02-07T01:24:28;292.40;;;88.00;;
57889;SDS011;43707;50.184;18.966;2023-02-07T01:27:10;281.50;;;82.80;;
57889;SDS011;43707;50.184;18.966;2023-02-07T01:33:09;265.90;;;79.80;;
57889;SDS011;43707;50.184;18.966;2023-02-07T01:56:19;266.40;;;78.00;;
57889;SDS011;43707;50.184;18.966;2023-02-07T01:58:51;279.10;;;88.80;;
57889;SDS011;43707;50.184;18.966;2023-02-07T02:01:18;273.50;;;84.70;;
57889;SDS011;43707;50.184;18.966;2023-02-07T02:03:54;243.50;;;76.70;;
57889;SDS011;43707;50.184;18.966;2023-02-07T02:18:32;251.70;;;68.70;;
57889;SDS011;43707;50.184;18.966;2023-02-07T02:25:22;280.10;;;83.60;;
57889;SDS011;43707;50.184;18.966;2023-02-07T02:31:36;347.90;;;106.20;;
57889;SDS011;43707;50.184;18.966;2023-02-07T02:39:33;386.20;;;111.40;;
57889;SDS011;43707;50.184;18.966;2023-02-07T02:50:28;316.90;;;95.80;;
57889;SDS011;43707;50.184;18.966;2023-02-07T02:52:57;308.30;;;94.70;;
57889;SDS011;43707;50.184;18.966;2023-02-07T02:55:31;314.60;;;95.80;;
57889;SDS011;43707;50.184;18.966;2023-02-07T03:22:40;211.90;;;64.60;;
57889;SDS011;43707;50.184;18.966;2023-02-07T03:25:12;235.20;;;71.30;;
57889;SDS011;43707;50.184;18.966;2023-02-07T03:27:58;229.70;;;70.20;;
57889;SDS011;43707;50.184;18.966;2023-02-07T03:30:59;221.20;;;62.10;;
57889;SDS011;43707;50.184;18.966;2023-02-07T03:43:29;209.90;;;60.00;;
57889;SDS011;43707;50.184;18.966;2023-02-07T03:46:06;243.50;;;69.50;;
57889;SDS011;43707;50.184;18.966;2023-02-07T03:51:47;212.80;;;61.50;;
57889;SDS011;43707;50.184;18.966;2023-02-07T03:54:16;224.20;;;66.30;;
57889;SDS011;43707;50.184;18.966;2023-02-07T03:57:26;248.20;;;71.20;;
57889;SDS011;43707;50.184;18.966;2023-02-07T04:06:18;234.40;;;66.90;;
57889;SDS011;43707;50.184;18.966;2023-02-07T04:08:47;204.40;;;64.70;;
57889;SDS011;43707;50.184;18.966;2023-02-07T04:14:41;215.40;;;68.70;;
57889;SDS011;43707;50.184;18.966;2023-02-07T04:17:07;262.80;;;80.50;;
57889;SDS011;43707;50.184;18.966;2023-02-07T04:19:35;255.80;;;76.20;;
57889;SDS011;43707;50.184;18.966;2023-02-07T04:22:02;253.90;;;77.80;;
57889;SDS011;43707;50.184;18.966;2023-02-07T04:24:27;288.90;;;89.50;;
57889;SDS011;43707;50.184;18.966;2023-02-07T04:26:56;225.80;;;68.00;;
57889;SDS011;43707;50.184;18.966;2023-02-07T04:32:40;204.30;;;66.00;;
57889;SDS011;43707;50.184;18.966;2023-02-07T04:35:19;243.80;;;80.60;;
57889;SDS011;43707;50.184;18.966;2023-02-07T04:38:09;273.00;;;84.80;;
57889;SDS011;43707;50.184;18.966;2023-02-07T04:40:44;227.60;;;71.20;;
57889;SDS011;43707;50.184;18.966;2023-02-07T04:46:35;236.10;;;71.80;;
57889;SDS011;43707;50.184;18.966;2023-02-07T04:49:06;231.70;;;75.40;;
57889;SDS011;43707;50.184;18.966;2023-02-07T04:51:41;227.20;;;75.00;;
57889;SDS011;43707;50.184;18.966;2023-02-07T04:54:12;232.00;;;76.40;;
57889;SDS011;43707;50.184;18.966;2023-02-07T04:56:41;222.80;;;77.30;;
57889;SDS011;43707;50.184;18.966;2023-02-07T04:59:23;222.30;;;75.70;;
57889;SDS011;43707;50.184;18.966;2023-02-07T05:50:49;273.20;;;85.80;;
57889;SDS011;43707;50.184;18.966;2023-02-07T08:12:10;407.70;;;164.90;;
57889;SDS011;43707;50.184;18.966;2023-02-07T08:14:38;399.30;;;152.00;;
57889;SDS011;43707;50.184;18.966;2023-02-07T08:17:04;302.10;;;113.10;;
57889;SDS011;43707;50.184;18.966;2023-02-07T08:19:29;327.80;;;124.80;;
57889;SDS011;43707;50.184;18.966;2023-02-07T08:21:55;338.50;;;123.00;;
57889;SDS011;43707;50.184;18.966;2023-02-07T08:24:24;321.80;;;120.20;;
57889;SDS011;43707;50.184;18.966;2023-02-07T08:27:00;332.20;;;121.40;;
57889;SDS011;43707;50.184;18.966;2023-02-07T08:29:26;320.90;;;114.20;;
57889;SDS011;43707;50.184;18.966;2023-02-07T08:31:51;266.40;;;96.60;;
57889;SDS011;43707;50.184;18.966;2023-02-07T08:34:17;267.60;;;96.60;;
57889;SDS011;43707;50.184;18.966;2023-02-07T08:36:48;304.70;;;109.40;;
57889;SDS011;43707;50.184;18.966;2023-02-07T08:39:24;252.70;;;91.90;;
57889;SDS011;43707;50.184;18.966;2023-02-07T08:41:58;252.10;;;89.60;;
57889;SDS011;43707;50.184;18.966;2023-02-07T08:47:14;242.80;;;91.90;;
57889;SDS011;43707;50.184;18.966;2023-02-07T08:49:54;232.40;;;85.90;;
57889;SDS011;43707;50.184;18.966;2023-02-07T08:53:10;257.90;;;91.40;;
57889;SDS011;43707;50.184;18.966;2023-02-07T08:55:54;301.70;;;104.50;;
57889;SDS011;43707;50.184;18.966;2023-02-07T08:59:37;271.90;;;97.80;;
57889;SDS011;43707;50.184;18.966;2023-02-07T09:02:46;278.50;;;100.30;;
57889;SDS011;43707;50.184;18.966;2023-02-07T09:05:48;301.20;;;107.90;;
57889;SDS011;43707;50.184;18.966;2023-02-07T09:08:14;282.70;;;101.70;;
57889;SDS011;43707;50.184;18.966;2023-02-07T09:10:40;284.00;;;105.60;;
57889;SDS011;43707;50.184;18.966;2023-02-07T09:13:07;292.50;;;109.00;;
57889;SDS011;43707;50.184;18.966;2023-02-07T09:15:36;290.80;;;108.50;;
57889;SDS011;43707;50.184;18.966;2023-02-07T09:18:10;352.10;;;126.90;;
57889;SDS011;43707;50.184;18.966;2023-02-07T09:20:43;302.80;;;108.50;;
57889;SDS011;43707;50.184;18.966;2023-02-07T09:31:45;315.00;;;121.70;;
57889;SDS011;43707;50.184;18.966;2023-02-07T09:40:17;341.50;;;123.20;;
57889;SDS011;43707;50.184;18.966;2023-02-07T09:42:58;292.30;;;111.70;;
57889;SDS011;43707;50.184;18.966;2023-02-07T09:50:50;210.70;;;77.00;;
57889;SDS011;43707;50.184;18.966;2023-02-07T09:56:36;210.80;;;81.50;;
57889;SDS011;43707;50.184;18.966;2023-02-07T09:59:24;184.50;;;75.20;;
57889;SDS011;43707;50.184;18.966;2023-02-07T10:01:57;175.30;;;61.30;;
57889;SDS011;43707;50.184;18.966;2023-02-07T10:04:26;204.60;;;80.30;;
57889;SDS011;43707;50.184;18.966;2023-02-07T10:06:56;190.80;;;70.60;;
57889;SDS011;43707;50.184;18.966;2023-02-07T10:09:23;176.00;;;65.80;;
57889;SDS011;43707;50.184;18.966;2023-02-07T10:11:59;189.60;;;72.30;;
57889;SDS011;43707;50.184;18.966;2023-02-07T10:23:23;216.50;;;82.00;;
57889;SDS011;43707;50.184;18.966;2023-02-07T11:29:18;188.40;;;70.00;;
57889;SDS011;43707;50.184;18.966;2023-02-07T11:32:19;171.40;;;65.50;;
57889;SDS011;43707;50.184;18.966;2023-02-07T11:35:15;167.10;;;60.80;;
57889;SDS011;43707;50.184;18.966;2023-02-07T11:40:48;198.40;;;71.90;;
57889;SDS011;43707;50.184;18.966;2023-02-07T11:43:53;176.20;;;67.90;;
57889;SDS011;43707;50.184;18.966;2023-02-07T11:47:01;176.70;;;67.50;;
57889;SDS011;43707;50.184;18.966;2023-02-07T11:53:00;218.60;;;83.50;;
57889;SDS011;43707;50.184;18.966;2023-02-07T12:01:28;213.20;;;79.70;;
57889;SDS011;43707;50.184;18.966;2023-02-07T12:07:25;237.10;;;87.40;;
57889;SDS011;43707;50.184;18.966;2023-02-07T12:10:20;250.40;;;95.70;;
57889;SDS011;43707;50.184;18.966;2023-02-07T12:13:02;222.60;;;86.50;;
57889;SDS011;43707;50.184;18.966;2023-02-07T12:15:53;244.40;;;91.30;;
57889;SDS011;43707;50.184;18.966;2023-02-07T12:24:10;232.50;;;84.10;;
57889;SDS011;43707;50.184;18.966;2023-02-07T12:33:35;259.60;;;99.20;;
57889;SDS011;43707;50.184;18.966;2023-02-07T12:36:13;235.00;;;91.10;;
57889;SDS011;43707;50.184;18.966;2023-02-07T12:42:56;226.30;;;85.80;;
57889;SDS011;43707;50.184;18.966;2023-02-07T13:09:15;203.40;;;77.30;;
57889;SDS011;43707;50.184;18.966;2023-02-07T13:21:36;196.80;;;74.80;;
57889;SDS011;43707;50.184;18.966;2023-02-07T13:25:06;180.30;;;66.20;;
57889;SDS011;43707;50.184;18.966;2023-02-07T13:35:09;143.70;;;55.90;;
57889;SDS011;43707;50.184;18.966;2023-02-07T13:38:06;134.70;;;53.00;;
57889;SDS011;43707;50.184;18.966;2023-02-07T13:44:02;101.80;;;40.00;;
57889;SDS011;43707;50.184;18.966;2023-02-07T15:03:12;71.00;;;30.60;;
57889;SDS011;43707;50.184;18.966;2023-02-07T15:05:50;62.20;;;26.20;;
57889;SDS011;43707;50.184;18.966;2023-02-07T15:08:29;67.90;;;29.20;;
57889;SDS011;43707;50.184;18.966;2023-02-07T15:11:16;64.10;;;26.70;;
57889;SDS011;43707;50.184;18.966;2023-02-07T15:16:49;63.60;;;24.40;;
57889;SDS011;43707;50.184;18.966;2023-02-07T15:19:24;65.90;;;28.50;;
57889;SDS011;43707;50.184;18.966;2023-02-07T15:22:05;66.30;;;28.10;;
57889;SDS011;43707;50.184;18.966;2023-02-07T15:27:21;70.10;;;30.10;;
57889;SDS011;43707;50.184;18.966;2023-02-07T15:29:53;62.30;;;26.90;;
57889;SDS011;43707;50.184;18.966;2023-02-07T15:32:26;69.80;;;30.80;;
57889;SDS011;43707;50.184;18.966;2023-02-07T15:34:55;62.70;;;26.90;;
57889;SDS011;43707;50.184;18.966;2023-02-07T15:37:22;60.10;;;27.10;;
57889;SDS011;43707;50.184;18.966;2023-02-07T15:39:53;64.60;;;27.80;;
57889;SDS011;43707;50.184;18.966;2023-02-07T15:42:21;64.20;;;29.60;;
57889;SDS011;43707;50.184;18.966;2023-02-07T15:50:00;55.40;;;24.80;;
57889;SDS011;43707;50.184;18.966;2023-02-07T15:52:33;62.00;;;26.00;;
57889;SDS011;43707;50.184;18.966;2023-02-07T15:55:01;56.80;;;25.40;;
57889;SDS011;43707;50.184;18.966;2023-02-07T15:57:29;58.70;;;26.20;;
57889;SDS011;43707;50.184;18.966;2023-02-07T16:02:42;57.60;;;25.80;;
57889;SDS011;43707;50.184;18.966;2023-02-07T16:05:32;67.40;;;27.70;;
57889;SDS011;43707;50.184;18.966;2023-02-07T16:09:31;69.50;;;30.80;;
57889;SDS011;43707;50.184;18.966;2023-02-07T16:18:15;78.20;;;31.70;;
57889;SDS011;43707;50.184;18.966;2023-02-07T17:31:16;70.30;;;31.10;;
57889;SDS011;43707;50.184;18.966;2023-02-07T17:48:08;81.60;;;36.30;;
57889;SDS011;43707;50.184;18.966;2023-02-07T17:53:31;68.70;;;28.50;;
57889;SDS011;43707;50.184;18.966;2023-02-07T18:02:03;86.30;;;34.30;;
57889;SDS011;43707;50.184;18.966;2023-02-07T18:04:44;96.30;;;42.10;;
57889;SDS011;43707;50.184;18.966;2023-02-07T18:23:57;93.90;;;38.70;;
57889;SDS011;43707;50.184;18.966;2023-02-07T18:26:49;79.80;;;34.20;;
57889;SDS011;43707;50.184;18.966;2023-02-07T18:29:41;86.50;;;37.60;;
57889;SDS011;43707;50.184;18.966;2023-02-07T18:32:07;85.40;;;35.60;;
57889;SDS011;43707;50.184;18.966;2023-02-07T18:34:33;110.60;;;44.90;;
57889;SDS011;43707;50.184;18.966;2023-02-07T18:39:28;88.60;;;36.10;;
57889;SDS011;43707;50.184;18.966;2023-02-07T18:41:55;89.40;;;37.10;;
57889;SDS011;43707;50.184;18.966;2023-02-07T18:44:33;98.40;;;33.70;;
57889;SDS011;43707;50.184;18.966;2023-02-07T18:47:07;90.90;;;36.30;;
57889;SDS011;43707;50.184;18.966;2023-02-07T18:49:36;92.60;;;33.40;;
57889;SDS011;43707;50.184;18.966;2023-02-07T18:52:04;93.90;;;36.50;;
57889;SDS011;43707;50.184;18.966;2023-02-07T18:54:33;77.90;;;31.60;;
57889;SDS011;43707;50.184;18.966;2023-02-07T18:57:20;97.30;;;39.40;;
57889;SDS011;43707;50.184;18.966;2023-02-07T18:59:53;113.00;;;42.80;;
57889;SDS011;43707;50.184;18.966;2023-02-07T19:02:58;120.90;;;46.00;;
57889;SDS011;43707;50.184;18.966;2023-02-07T19:05:25;103.10;;;40.00;;
57889;SDS011;43707;50.184;18.966;2023-02-07T19:07:52;125.10;;;47.10;;
57889;SDS011;43707;50.184;18.966;2023-02-07T19:10:21;116.10;;;45.10;;
57889;SDS011;43707;50.184;18.966;2023-02-07T19:12:50;98.60;;;39.50;;
57889;SDS011;43707;50.184;18.966;2023-02-07T19:15:15;99.40;;;39.20;;
57889;SDS011;43707;50.184;18.966;2023-02-07T19:17:41;109.50;;;42.80;;
57889;SDS011;43707;50.184;18.966;2023-02-07T20:24:29;120.00;;;42.90;;
57889;SDS011;43707;50.184;18.966;2023-02-07T20:27:49;169.00;;;60.60;;
57889;SDS011;43707;50.184;18.966;2023-02-07T20:30:17;121.30;;;44.20;;
57889;SDS011;43707;50.184;18.966;2023-02-07T20:32:52;114.30;;;41.30;;
57889;SDS011;43707;50.184;18.966;2023-02-07T20:35:18;111.50;;;39.60;;
57889;SDS011;43707;50.184;18.966;2023-02-07T20:37:44;123.00;;;44.40;;
57889;SDS011;43707;50.184;18.966;2023-02-07T20:40:10;124.10;;;43.20;;
57889;SDS011;43707;50.184;18.966;2023-02-07T20:42:37;113.20;;;39.20;;
57889;SDS011;43707;50.184;18.966;2023-02-07T20:45:12;105.40;;;39.90;;
57889;SDS011;43707;50.184;18.966;2023-02-07T20:47:38;109.70;;;37.50;;
57889;SDS011;43707;50.184;18.966;2023-02-07T20:50:05;88.90;;;33.90;;
57889;SDS011;43707;50.184;18.966;2023-02-07T20:52:37;103.80;;;35.30;;
57889;SDS011;43707;50.184;18.966;2023-02-07T20:55:04;113.90;;;40.80;;
57889;SDS011;43707;50.184;18.966;2023-02-07T20:57:29;111.60;;;37.60;;
57889;SDS011;43707;50.184;18.966;2023-02-07T21:00:02;123.00;;;43.00;;
57889;SDS011;43707;50.184;18.966;2023-02-07T21:02:35;103.90;;;38.90;;
57889;SDS011;43707;50.184;18.966;2023-02-07T21:05:08;98.80;;;33.90;;
57889;SDS011;43707;50.184;18.966;2023-02-07T21:07:36;115.30;;;36.50;;
57889;SDS011;43707;50.184;18.966;2023-02-07T21:12:38;94.30;;;32.60;;
57889;SDS011;43707;50.184;18.966;2023-02-07T21:15:04;108.30;;;39.60;;
57889;SDS011;43707;50.184;18.966;2023-02-07T21:17:30;113.50;;;35.90;;
